Time;durP1;ratioP1;P1;durP2;ratioP2;P2;SDS_P1;SDS_P2;PMS_P1;PMS_P2;Temp;Humidity;BMP_temperature;BMP_pressure;BME280_temperature;BME280_humidity;BME280_pressure;Samples;Min_cycle;Max_cycle;Signal;HPM_P1;HPM_P2
2023/03/17 00:00:19;;;;;;;6.00;2.88;;;;;;;8.99;74.34;100723.28;5103959;27;20051;-67
2023/03/17 00:02:48;;;;;;;5.68;3.00;;;;;;;8.99;74.09;100726.81;5137176;28;20059;-66
2023/03/17 00:05:18;;;;;;;5.40;2.90;;;;;;;8.99;73.79;100736.88;5103417;28;20433;-66
2023/03/17 00:07:47;;;;;;;5.47;3.00;;;;;;;8.97;73.40;100742.56;5092191;28;20116;-66
2023/03/17 00:10:21;;;;;;;8.07;3.22;;;;;;;8.93;73.58;100734.13;5092993;28;20557;-66
2023/03/17 00:12:50;;;;;;;4.30;2.88;;;;;;;8.93;73.63;100734.13;5095018;27;20044;-66
2023/03/17 00:15:19;;;;;;;5.43;2.83;;;;;;;8.92;73.47;100739.81;5109683;28;20058;-67
2023/03/17 00:17:48;;;;;;;5.57;3.38;;;;;;;8.90;73.83;100731.13;5113419;28;20232;-65
2023/03/17 00:20:25;;;;;;;6.25;3.10;;;;;;;8.88;74.05;100723.22;5113217;28;20043;-65
2023/03/17 00:22:56;;;;;;;6.78;3.10;;;;;;;8.87;73.85;100716.13;5080714;28;20044;-65
2023/03/17 00:25:28;;;;;;;5.30;3.15;;;;;;;8.88;73.34;100711.53;5059372;28;20048;-66
2023/03/17 00:27:59;;;;;;;5.00;3.08;;;;;;;8.87;74.18;100715.31;5093002;28;20047;-66
2023/03/17 00:30:28;;;;;;;6.45;3.00;;;;;;;8.87;73.89;100710.69;5094238;28;20048;-66
2023/03/17 00:32:57;;;;;;;7.50;2.88;;;;;;;8.84;73.45;100700.34;5105677;28;20044;-65
2023/03/17 00:35:27;;;;;;;7.10;3.30;;;;;;;8.85;73.85;100715.59;5096339;28;20048;-66
2023/03/17 00:37:57;;;;;;;6.45;2.92;;;;;;;8.86;74.33;100706.34;5112969;28;20403;-67
2023/03/17 00:40:30;;;;;;;7.20;3.03;;;;;;;8.90;73.07;100703.94;5112837;28;20050;-65
2023/03/17 00:42:59;;;;;;;6.75;3.05;;;;;;;8.89;73.64;100694.13;5091215;28;20048;-65
2023/03/17 00:45:26;;;;;;;4.88;3.13;;;;;;;8.89;73.65;100697.69;5093470;28;20126;-65
2023/03/17 00:47:57;;;;;;;5.18;2.90;;;;;;;8.87;73.12;100699.81;5093129;28;20128;-65
2023/03/17 00:50:27;;;;;;;6.90;3.20;;;;;;;8.85;73.00;100691.16;5066830;28;20051;-65
2023/03/17 00:52:56;;;;;;;4.63;2.80;;;;;;;8.85;72.83;100685.72;5111296;28;20047;-65
2023/03/17 00:55:26;;;;;;;5.30;2.97;;;;;;;8.87;73.53;100693.56;5112123;28;20048;-65
2023/03/17 00:57:54;;;;;;;5.90;3.20;;;;;;;8.89;72.65;100688.72;5095829;28;20048;-64
2023/03/17 01:00:28;;;;;;;7.85;3.33;;;;;;;8.88;72.34;100682.47;5112622;28;20040;-65
2023/03/17 01:02:56;;;;;;;3.92;2.83;;;;;;;8.86;72.16;100681.91;5112913;28;20050;-65
2023/03/17 01:05:27;;;;;;;5.28;2.80;;;;;;;8.85;71.85;100680.28;5093716;28;20489;-66
2023/03/17 01:07:57;;;;;;;7.82;3.13;;;;;;;8.84;72.30;100681.34;5093176;28;20044;-66
2023/03/17 01:10:27;;;;;;;4.30;2.65;;;;;;;8.80;72.19;100680.22;5092464;28;20412;-66
2023/03/17 01:12:58;;;;;;;6.32;2.85;;;;;;;8.78;72.23;100671.53;5093247;28;20488;-65
2023/03/17 01:15:30;;;;;;;8.52;3.00;;;;;;;8.77;72.56;100672.59;5093077;28;20105;-66
2023/03/17 01:18:01;;;;;;;9.68;3.17;;;;;;;8.77;72.73;100680.72;5092504;28;20044;-67
2023/03/17 01:20:33;;;;;;;7.78;2.92;;;;;;;8.77;72.24;100683.44;5094892;28;20089;-66
2023/03/17 01:23:02;;;;;;;4.75;3.17;;;;;;;8.76;72.11;100689.97;5076105;28;20131;-66
2023/03/17 01:25:30;;;;;;;5.85;2.90;;;;;;;8.76;71.69;100689.97;5096145;28;20044;-65
2023/03/17 01:27:58;;;;;;;5.03;2.88;;;;;;;8.76;72.03;100676.41;5094010;28;20048;-65
2023/03/17 01:30:36;;;;;;;4.78;2.80;;;;;;;8.76;72.18;100675.59;5083329;28;20052;-65
2023/03/17 01:33:05;;;;;;;6.50;2.88;;;;;;;8.74;71.86;100667.69;5099155;28;20448;-65
2023/03/17 01:35:34;;;;;;;5.57;3.20;;;;;;;8.74;72.37;100667.69;5117069;28;20039;-64
2023/03/17 01:38:02;;;;;;;6.85;2.70;;;;;;;8.72;71.50;100667.94;5116393;28;20096;-65
2023/03/17 01:40:32;;;;;;;5.38;2.72;;;;;;;8.71;71.80;100662.78;5099270;28;20537;-65
2023/03/17 01:43:15;;;;;;;5.35;2.83;;;;;;;8.72;71.85;100664.41;5114985;27;20057;-67
2023/03/17 01:46:13;;;;;;;5.43;2.92;;;;;;;8.70;72.32;100664.66;5095543;28;20048;-66
2023/03/17 01:49:11;;;;;;;6.78;2.88;;;;;;;8.69;71.60;100654.06;5078537;28;20059;-65
2023/03/17 01:51:45;;;;;;;5.38;2.63;;;;;;;8.67;72.46;100653.50;5096487;28;20561;-66
2023/03/17 01:54:27;;;;;;;4.05;2.80;;;;;;;8.67;71.88;100657.03;5065032;28;20101;-66
2023/03/17 01:56:57;;;;;;;5.57;2.85;;;;;;;8.65;71.28;100653.75;5106822;27;20396;-66
2023/03/17 01:59:29;;;;;;;7.75;2.95;;;;;;;8.65;71.93;100650.22;5065654;28;20448;-65
2023/03/17 02:02:02;;;;;;;6.80;2.85;;;;;;;8.63;71.19;100650.47;5116512;28;20066;-66
2023/03/17 02:04:51;;;;;;;4.25;2.67;;;;;;;8.62;71.65;100648.03;5094113;28;20055;-65
2023/03/17 02:07:33;;;;;;;9.90;2.83;;;;;;;8.60;71.60;100644.75;5081294;28;20052;-65
2023/03/17 02:10:02;;;;;;;7.25;2.75;;;;;;;8.59;72.16;100637.69;5078373;28;20051;-65
2023/03/17 02:12:30;;;;;;;5.88;2.78;;;;;;;8.60;71.99;100633.88;5095374;28;20220;-65
2023/03/17 02:14:58;;;;;;;5.40;2.88;;;;;;;8.59;71.53;100632.25;5081949;28;20113;-66
2023/03/17 02:17:27;;;;;;;4.97;2.63;;;;;;;8.60;72.03;100631.16;5099019;28;20137;-67
2023/03/17 02:19:55;;;;;;;10.05;3.50;;;;;;;8.59;71.82;100627.63;5114851;27;20488;-67
2023/03/17 02:22:23;;;;;;;4.50;2.78;;;;;;;8.57;71.36;100621.66;5065011;28;20052;-66
2023/03/17 02:24:58;;;;;;;7.78;3.05;;;;;;;8.57;71.10;100623.56;5097281;28;20066;-66
2023/03/17 02:27:33;;;;;;;4.85;2.60;;;;;;;8.58;72.08;100630.59;5098754;28;20066;-66
2023/03/17 02:30:03;;;;;;;6.05;2.83;;;;;;;8.59;72.08;100637.69;5110592;28;20066;-62
2023/03/17 02:32:35;;;;;;;4.43;2.72;;;;;;;8.61;71.50;100630.91;5061516;28;20055;-64
2023/03/17 02:35:03;;;;;;;5.40;2.70;;;;;;;8.60;71.65;100621.13;5090199;28;20051;-66
2023/03/17 02:37:31;;;;;;;8.57;3.00;;;;;;;8.59;71.41;100626.84;5097438;28;20105;-64
2023/03/17 02:40:04;;;;;;;6.18;3.20;;;;;;;8.58;71.03;100620.56;5091513;28;20040;-65
2023/03/17 02:42:32;;;;;;;4.35;2.67;;;;;;;8.59;71.60;100614.06;5127062;27;20058;-64
2023/03/17 02:45:01;;;;;;;5.00;2.70;;;;;;;8.59;70.66;100607.81;5123502;28;20525;-66
2023/03/17 02:47:28;;;;;;;5.45;2.95;;;;;;;8.57;71.08;100602.63;5078607;28;20044;-66
2023/03/17 02:49:56;;;;;;;5.68;3.15;;;;;;;8.59;71.76;100608.63;5114781;28;20101;-64
2023/03/17 02:52:24;;;;;;;4.70;2.90;;;;;;;8.57;71.06;100601.81;5088110;28;20131;-66
2023/03/17 02:54:52;;;;;;;7.65;3.08;;;;;;;8.57;71.00;100599.09;5077524;28;20043;-66
2023/03/17 02:57:20;;;;;;;4.22;2.70;;;;;;;8.58;71.09;100604.25;5093764;28;20048;-66
2023/03/17 02:59:47;;;;;;;5.55;3.03;;;;;;;8.58;71.07;100614.31;5060601;28;20051;-65
2023/03/17 03:02:15;;;;;;;4.75;2.70;;;;;;;8.58;71.68;100604.25;5100264;28;20056;-66
2023/03/17 03:04:44;;;;;;;8.32;3.00;;;;;;;8.61;70.72;100594.78;5115304;28;20069;-65
2023/03/17 03:07:12;;;;;;;5.40;2.90;;;;;;;8.61;70.77;100595.63;5115639;28;20043;-65
2023/03/17 03:09:40;;;;;;;5.75;2.85;;;;;;;8.60;70.28;100601.28;5115749;28;20039;-66
2023/03/17 03:12:08;;;;;;;4.93;2.60;;;;;;;8.60;70.85;100595.88;5111841;27;20483;-65
2023/03/17 03:14:36;;;;;;;6.20;2.70;;;;;;;8.61;70.92;100602.91;5115403;28;20414;-66
2023/03/17 03:17:04;;;;;;;6.75;3.10;;;;;;;8.61;70.71;100600.19;5110342;28;20376;-65
2023/03/17 03:19:31;;;;;;;6.70;2.85;;;;;;;8.60;70.77;100601.28;5115431;27;20078;-65
2023/03/17 03:21:59;;;;;;;5.60;2.70;;;;;;;8.61;70.38;100602.91;5115897;28;20079;-65
2023/03/17 03:24:27;;;;;;;4.55;2.63;;;;;;;8.61;70.50;100608.34;5114822;27;20040;-66
2023/03/17 03:26:56;;;;;;;5.93;2.90;;;;;;;8.60;70.30;100591.25;5114846;28;20039;-66
2023/03/17 03:29:23;;;;;;;4.85;2.70;;;;;;;8.60;70.75;100596.69;5114888;28;20430;-66
2023/03/17 03:31:51;;;;;;;7.97;3.20;;;;;;;8.60;69.60;100609.44;5114655;28;20483;-66
2023/03/17 03:34:19;;;;;;;9.88;2.78;;;;;;;8.57;70.32;100602.63;5113441;27;20047;-67
2023/03/17 03:36:47;;;;;;;4.93;2.58;;;;;;;8.56;70.56;100606.41;5114766;28;20044;-67
2023/03/17 03:39:14;;;;;;;3.88;2.60;;;;;;;8.56;70.38;100613.75;5114580;28;20054;-66
2023/03/17 03:41:42;;;;;;;5.18;2.78;;;;;;;8.56;70.30;100611.03;5114723;27;20040;-66
2023/03/17 03:44:10;;;;;;;5.60;3.17;;;;;;;8.57;70.38;100608.06;5111897;27;20044;-66
2023/03/17 03:46:37;;;;;;;7.80;2.67;;;;;;;8.56;70.55;100611.03;5113483;28;20040;-67
2023/03/17 03:49:05;;;;;;;4.82;2.80;;;;;;;8.57;70.77;100612.69;5112689;28;20131;-65
2023/03/17 03:51:33;;;;;;;4.45;2.55;;;;;;;8.56;69.73;100622.72;5114917;28;20054;-65
2023/03/17 03:54:00;;;;;;;5.72;2.90;;;;;;;8.56;70.63;100617.28;5112820;28;20146;-66
2023/03/17 03:56:28;;;;;;;3.65;2.70;;;;;;;8.56;70.16;100621.91;5114705;27;20084;-66
2023/03/17 03:58:56;;;;;;;5.18;2.58;;;;;;;8.55;70.45;100633.84;5096350;28;20483;-66
2023/03/17 04:01:24;;;;;;;7.10;3.08;;;;;;;8.55;70.59;100642.00;5114429;28;20059;-66
2023/03/17 04:03:52;;;;;;;5.88;2.90;;;;;;;8.52;70.12;100636.00;5113052;28;20043;-67
2023/03/17 04:06:19;;;;;;;10.40;3.10;;;;;;;8.51;71.09;100636.25;5087166;28;20071;-67
2023/03/17 04:08:47;;;;;;;4.72;2.60;;;;;;;8.48;70.48;100637.59;5093500;28;20582;-66
2023/03/17 04:11:15;;;;;;;4.78;3.10;;;;;;;8.45;71.11;100643.53;5092763;28;20051;-65
2023/03/17 04:13:43;;;;;;;7.28;3.20;;;;;;;8.44;71.01;100638.34;5093051;28;20043;-66
2023/03/17 04:16:11;;;;;;;7.63;3.40;;;;;;;8.41;71.17;100642.41;5100694;28;20063;-66
2023/03/17 04:18:39;;;;;;;5.93;3.20;;;;;;;8.39;71.46;100639.09;5095993;28;20419;-65
2023/03/17 04:21:07;;;;;;;5.93;2.75;;;;;;;8.41;71.82;100636.16;5076213;28;20044;-65
2023/03/17 04:23:35;;;;;;;6.50;2.95;;;;;;;8.41;71.75;100641.59;5103285;28;20040;-66
2023/03/17 04:26:03;;;;;;;6.88;3.00;;;;;;;8.38;72.16;100626.63;5112386;28;20532;-66
2023/03/17 04:28:31;;;;;;;5.60;2.80;;;;;;;8.35;72.01;100626.31;5093987;28;20372;-65
2023/03/17 04:30:58;;;;;;;7.55;2.90;;;;;;;8.32;72.99;100628.47;5094492;28;20040;-66
2023/03/17 04:33:26;;;;;;;4.43;2.47;;;;;;;8.31;73.00;100631.44;5093658;28;20130;-66
2023/03/17 04:35:54;;;;;;;6.22;3.05;;;;;;;8.29;72.68;100634.41;5093190;28;20090;-66
2023/03/17 04:38:22;;;;;;;8.02;2.70;;;;;;;8.29;73.31;100634.41;5089004;28;20097;-66
2023/03/17 04:40:50;;;;;;;6.95;3.08;;;;;;;8.30;73.38;100641.47;5092914;28;20080;-66
2023/03/17 04:43:18;;;;;;;6.38;2.70;;;;;;;8.28;72.70;100629.25;5093366;28;20055;-66
2023/03/17 04:45:46;;;;;;;5.88;3.00;;;;;;;8.25;73.71;100627.03;5092610;28;20048;-65
2023/03/17 04:48:13;;;;;;;5.40;2.88;;;;;;;8.25;73.68;100637.88;5104538;28;20052;-66
2023/03/17 04:50:41;;;;;;;5.93;2.70;;;;;;;8.25;73.00;100637.88;5112542;28;20052;-66
2023/03/17 04:53:09;;;;;;;4.30;2.75;;;;;;;8.25;73.30;100637.88;5114398;28;20074;-66
2023/03/17 04:55:37;;;;;;;3.65;2.70;;;;;;;8.25;73.05;100644.16;5113134;28;20047;-66
2023/03/17 04:58:04;;;;;;;6.55;3.00;;;;;;;8.23;72.97;100631.91;5112794;28;20131;-66
2023/03/17 05:00:37;;;;;;;3.97;2.80;;;;;;;8.20;73.89;100632.41;5114724;28;20082;-65
2023/03/17 05:03:05;;;;;;;7.32;3.20;;;;;;;8.18;73.71;100629.13;5114688;28;20051;-67
2023/03/17 05:05:52;;;;;;;6.18;3.15;;;;;;;8.19;74.37;100630.78;5102318;28;20517;-66
2023/03/17 05:08:20;;;;;;;7.18;2.90;;;;;;;8.19;74.24;100634.31;5116427;27;20143;-66
2023/03/17 05:10:48;;;;;;;5.78;3.08;;;;;;;8.21;73.95;100632.16;5099724;28;20042;-66
2023/03/17 05:13:17;;;;;;;10.45;3.30;;;;;;;8.21;73.88;100628.63;5116584;28;20039;-66
2023/03/17 05:15:49;;;;;;;5.60;3.25;;;;;;;8.21;75.06;100625.91;5100005;28;20134;-66
2023/03/17 05:18:17;;;;;;;6.22;2.85;;;;;;;8.22;73.81;100616.69;5103138;28;20044;-65
2023/03/17 05:20:45;;;;;;;8.27;3.53;;;;;;;8.21;74.08;100617.78;5113610;27;20522;-66
2023/03/17 05:23:13;;;;;;;6.78;2.85;;;;;;;8.19;74.86;100607.16;5114174;28;20055;-66
2023/03/17 05:25:41;;;;;;;5.47;2.92;;;;;;;8.19;74.65;100611.78;5095628;28;20079;-65
2023/03/17 05:28:09;;;;;;;5.35;2.88;;;;;;;8.18;75.24;100608.25;5108151;28;20055;-65
2023/03/17 05:30:37;;;;;;;7.38;3.50;;;;;;;8.21;74.72;100617.78;5131568;27;20043;-66
2023/03/17 05:33:05;;;;;;;7.90;3.42;;;;;;;8.15;73.80;100629.66;5127989;28;20498;-67
2023/03/17 05:35:33;;;;;;;5.55;3.13;;;;;;;8.10;74.88;100620.41;5117970;28;20373;-65
2023/03/17 05:38:01;;;;;;;4.30;3.00;;;;;;;8.10;74.80;100620.41;5093936;28;20040;-66
2023/03/17 05:40:29;;;;;;;6.60;2.92;;;;;;;8.15;75.24;100629.66;5110828;28;20048;-67
2023/03/17 05:42:57;;;;;;;7.38;3.00;;;;;;;8.18;74.40;100631.84;5094963;28;20044;-65
2023/03/17 05:45:24;;;;;;;5.28;3.03;;;;;;;8.19;74.38;100625.34;5095082;28;20125;-65
2023/03/17 05:47:52;;;;;;;6.35;3.30;;;;;;;8.21;74.78;100631.34;5097046;27;20142;-66
2023/03/17 05:50:20;;;;;;;6.97;3.45;;;;;;;8.21;74.77;100634.06;5115695;28;20046;-67
2023/03/17 05:52:50;;;;;;;6.93;3.05;;;;;;;8.20;74.25;100629.69;5081653;28;20048;-68
2023/03/17 05:55:18;;;;;;;5.88;3.35;;;;;;;8.18;74.07;100629.97;5115134;28;20468;-67
2023/03/17 05:57:46;;;;;;;8.55;3.00;;;;;;;8.17;74.83;100630.22;5116226;28;20054;-66
2023/03/17 06:00:17;;;;;;;6.57;3.45;;;;;;;8.18;74.92;100623.69;5115643;28;20399;-66
2023/03/17 06:02:45;;;;;;;6.25;3.00;;;;;;;8.17;74.63;100616.66;5115228;28;20056;-66
2023/03/17 06:05:14;;;;;;;6.15;3.03;;;;;;;8.18;74.76;100626.41;5115566;27;20113;-65
2023/03/17 06:07:41;;;;;;;6.50;3.28;;;;;;;8.18;74.69;100616.41;5115986;28;20479;-66
2023/03/17 06:10:21;;;;;;;6.15;3.28;;;;;;;8.17;74.63;100613.94;5116670;28;20054;-66
2023/03/17 06:12:49;;;;;;;6.93;3.33;;;;;;;8.16;74.89;100613.13;5117246;28;20040;-65
2023/03/17 06:15:17;;;;;;;8.60;3.50;;;;;;;8.17;75.04;100624.78;5098619;28;20089;-65
2023/03/17 06:17:45;;;;;;;6.10;3.10;;;;;;;8.16;75.49;100617.72;5094075;28;20109;-66
2023/03/17 06:20:13;;;;;;;6.75;3.13;;;;;;;8.16;74.74;100628.59;5096012;28;20127;-66
2023/03/17 06:22:41;;;;;;;7.15;3.20;;;;;;;8.15;75.62;100619.59;5115876;27;20047;-66
2023/03/17 06:25:29;;;;;;;6.00;3.20;;;;;;;8.17;75.73;100624.78;5115643;28;20485;-66
2023/03/17 06:27:57;;;;;;;7.65;3.33;;;;;;;8.18;75.62;100620.97;4389623;28;10000477;-67
2023/03/17 06:30:25;;;;;;;6.32;3.20;;;;;;;8.18;75.07;100618.28;5104578;28;20054;-66
2023/03/17 06:32:54;;;;;;;6.43;3.20;;;;;;;8.17;75.73;100624.78;5118283;28;20047;-65
2023/03/17 06:35:22;;;;;;;8.95;3.40;;;;;;;8.18;75.44;100629.13;5114211;28;20047;-66
2023/03/17 06:37:49;;;;;;;6.85;3.30;;;;;;;8.19;75.35;100633.50;5114446;28;20085;-66
2023/03/17 06:40:17;;;;;;;7.95;3.28;;;;;;;8.16;75.34;100618.53;5122530;28;20054;-65
2023/03/17 06:42:45;;;;;;;8.73;3.47;;;;;;;8.17;75.81;100622.06;5116366;28;20127;-65
2023/03/17 06:45:13;;;;;;;5.13;3.05;;;;;;;8.17;76.06;100619.34;5092527;28;20096;-66
2023/03/17 06:47:40;;;;;;;6.13;3.45;;;;;;;8.19;75.52;100622.63;5091751;28;20127;-66
2023/03/17 06:50:10;;;;;;;5.82;2.95;;;;;;;8.22;75.79;100631.06;5091846;28;20146;-66
2023/03/17 06:52:38;;;;;;;10.15;3.60;;;;;;;8.25;75.34;100627.03;5081657;27;20143;-67
2023/03/17 06:55:07;;;;;;;6.50;3.00;;;;;;;8.25;74.97;100624.31;5110263;28;20047;-66
2023/03/17 06:57:35;;;;;;;6.18;3.20;;;;;;;8.20;74.96;100624.25;5111983;28;20108;-67
2023/03/17 07:00:07;;;;;;;6.53;3.30;;;;;;;8.17;75.81;100620.16;5105759;28;20075;-66
2023/03/17 07:02:35;;;;;;;9.25;3.53;;;;;;;8.19;75.70;100628.88;5090112;28;20087;-65
2023/03/17 07:05:03;;;;;;;8.98;3.50;;;;;;;8.21;76.14;100625.91;5095765;28;20075;-67
2023/03/17 07:07:31;;;;;;;8.70;3.60;;;;;;;8.21;75.57;100620.50;5093936;28;20056;-65
2023/03/17 07:09:59;;;;;;;7.65;3.33;;;;;;;8.22;76.01;100630.25;5093117;27;20047;-66
2023/03/17 07:12:27;;;;;;;6.60;3.25;;;;;;;8.24;76.69;100636.25;5110875;28;20058;-66
2023/03/17 07:14:55;;;;;;;6.13;3.22;;;;;;;8.30;76.52;100640.66;5117256;27;20198;-66
2023/03/17 07:17:23;;;;;;;4.97;3.00;;;;;;;8.35;76.80;100640.72;5119531;27;20062;-65
2023/03/17 07:19:51;;;;;;;8.20;3.45;;;;;;;8.38;76.20;100642.91;5092822;28;20044;-67
2023/03/17 07:22:19;;;;;;;8.13;3.50;;;;;;;8.38;76.26;100633.94;5097080;28;20389;-66
2023/03/17 07:24:47;;;;;;;7.05;3.58;;;;;;;8.40;75.95;100623.69;5095968;28;20044;-65
2023/03/17 07:27:16;;;;;;;8.23;3.47;;;;;;;8.41;75.88;100626.13;5095340;28;20093;-65
2023/03/17 07:29:43;;;;;;;11.32;3.50;;;;;;;8.43;75.90;100629.41;5095018;28;20056;-65
2023/03/17 07:32:11;;;;;;;8.73;3.13;;;;;;;8.51;77.50;100625.38;5077434;28;20079;-66
2023/03/17 07:34:39;;;;;;;9.07;3.50;;;;;;;8.56;76.39;100632.75;5093657;28;20066;-65
2023/03/17 07:37:07;;;;;;;7.40;3.45;;;;;;;8.57;76.31;100631.69;5093476;28;20484;-67
2023/03/17 07:39:35;;;;;;;5.97;3.33;;;;;;;8.57;75.89;100637.13;5094786;28;20044;-65
2023/03/17 07:42:02;;;;;;;7.97;3.58;;;;;;;8.55;75.89;100631.13;5094412;28;20119;-65
2023/03/17 07:44:32;;;;;;;7.85;3.88;;;;;;;8.57;76.08;100618.94;5093973;28;20054;-66
2023/03/17 07:46:59;;;;;;;9.88;3.55;;;;;;;8.58;76.08;100614.31;5096870;28;20070;-65
2023/03/17 07:49:27;;;;;;;11.35;3.70;;;;;;;8.59;76.37;100610.53;5097283;28;20121;-66
2023/03/17 07:52:09;;;;;;;5.28;3.08;;;;;;;8.59;76.56;100618.69;5114037;28;20051;-65
2023/03/17 07:54:38;;;;;;;6.60;3.60;;;;;;;8.62;76.96;100612.72;5112955;28;20399;-65
2023/03/17 07:57:09;;;;;;;11.80;4.03;;;;;;;8.64;76.47;100616.81;5113970;28;20040;-66
2023/03/17 07:59:40;;;;;;;7.97;3.72;;;;;;;8.66;76.34;100605.66;5110444;28;20044;-66
2023/03/17 08:02:15;;;;;;;8.10;4.30;;;;;;;8.69;76.92;100627.72;5076406;28;20056;-67
2023/03/17 08:04:43;;;;;;;8.45;3.85;;;;;;;8.63;76.59;100626.03;5094140;28;20044;-64
2023/03/17 08:07:11;;;;;;;7.13;4.05;;;;;;;8.63;77.08;100619.78;5059750;28;20040;-65
2023/03/17 08:09:39;;;;;;;8.50;4.10;;;;;;;8.64;76.75;100624.16;5096061;28;20051;-65
2023/03/17 08:12:08;;;;;;;12.00;4.57;;;;;;;8.66;77.43;100633.66;5081308;28;20130;-66
2023/03/17 08:14:36;;;;;;;11.23;3.90;;;;;;;8.70;77.70;100640.19;5098049;28;20464;-65
2023/03/17 08:17:03;;;;;;;15.25;4.50;;;;;;;8.78;77.17;100630.78;5064164;28;20385;-66
2023/03/17 08:19:31;;;;;;;8.88;3.97;;;;;;;8.79;77.30;100626.97;5098454;28;20055;-66
2023/03/17 08:22:00;;;;;;;10.48;3.95;;;;;;;8.80;77.25;100631.31;5110901;27;20093;-65
2023/03/17 08:24:28;;;;;;;12.35;3.92;;;;;;;8.85;77.30;100625.94;5104402;28;20050;-65
2023/03/17 08:26:56;;;;;;;9.02;3.70;;;;;;;8.86;77.37;100616.69;5105808;28;20046;-66
2023/03/17 08:29:27;;;;;;;19.05;5.80;;;;;;;8.90;78.04;100628.69;5103536;28;20039;-67
2023/03/17 08:31:56;;;;;;;11.02;4.13;;;;;;;8.91;77.02;100637.66;5092963;28;20056;-66
2023/03/17 08:34:25;;;;;;;6.68;3.85;;;;;;;8.88;78.28;100636.28;5080859;28;20048;-67
2023/03/17 08:36:52;;;;;;;8.38;3.97;;;;;;;8.86;77.93;100633.00;5113752;28;20127;-65
2023/03/17 08:39:20;;;;;;;10.63;4.43;;;;;;;8.89;78.63;100637.09;5096457;28;20046;-66
2023/03/17 08:41:48;;;;;;;8.85;3.97;;;;;;;8.93;78.07;100627.34;5096084;28;20135;-66
2023/03/17 08:44:16;;;;;;;12.55;4.25;;;;;;;8.95;78.33;100617.84;5112397;28;20131;-67
2023/03/17 08:46:43;;;;;;;10.10;3.90;;;;;;;9.00;78.14;100621.69;5098363;28;20063;-66
2023/03/17 08:49:11;;;;;;;8.77;4.18;;;;;;;9.02;78.05;100619.50;5075382;28;20047;-66
2023/03/17 08:51:40;;;;;;;9.02;3.97;;;;;;;9.05;78.18;100608.94;5090100;28;20047;-65
2023/03/17 08:54:08;;;;;;;12.23;4.70;;;;;;;9.09;77.68;100593.75;5113193;28;20083;-65
2023/03/17 08:56:38;;;;;;;8.60;4.07;;;;;;;9.12;77.59;100589.69;5101730;28;20118;-65
2023/03/17 08:59:06;;;;;;;10.10;4.07;;;;;;;9.16;77.25;100604.34;5089612;28;20546;-67
2023/03/17 09:01:34;;;;;;;7.25;3.65;;;;;;;9.18;77.57;100613.06;5094712;28;20410;-66
2023/03/17 09:04:03;;;;;;;11.73;4.25;;;;;;;9.25;78.00;100621.81;5112464;28;20047;-66
2023/03/17 09:06:31;;;;;;;28.52;8.40;;;;;;;9.34;81.01;100622.94;5095572;28;20067;-66
2023/03/17 09:09:00;;;;;;;24.02;6.53;;;;;;;9.45;83.44;100625.72;5113359;28;20040;-65
2023/03/17 09:11:31;;;;;;;25.08;7.97;;;;;;;9.57;88.82;100620.84;5094330;28;20070;-66
2023/03/17 09:13:59;;;;;;;16.85;4.90;;;;;;;9.56;82.92;100627.38;5092102;28;20052;-66
2023/03/17 09:16:27;;;;;;;20.60;5.75;;;;;;;9.64;83.64;100617.91;5098104;28;20071;-65
2023/03/17 09:18:55;;;;;;;26.23;8.02;;;;;;;9.85;92.76;100613.34;5114051;28;20048;-67
2023/03/17 09:21:23;;;;;;;12.00;4.88;;;;;;;9.80;82.65;100619.59;5113643;28;20047;-68
2023/03/17 09:23:51;;;;;;;9.02;3.80;;;;;;;9.81;80.50;100622.06;5110311;28;20410;-66
2023/03/17 09:26:19;;;;;;;19.40;6.53;;;;;;;9.94;87.34;100620.72;5112428;28;20054;-66
2023/03/17 09:28:47;;;;;;;10.93;4.47;;;;;;;10.01;84.91;100624.00;5109845;28;20466;-65
2023/03/17 09:31:15;;;;;;;10.35;4.10;;;;;;;9.93;80.43;100613.66;5112753;28;20444;-66
2023/03/17 09:33:43;;;;;;;12.77;4.47;;;;;;;10.00;81.27;100616.91;5096004;28;20101;-66
2023/03/17 09:36:10;;;;;;;8.88;4.28;;;;;;;10.02;80.66;100616.63;5082619;28;20061;-64
2023/03/17 09:38:39;;;;;;;9.20;4.30;;;;;;;10.02;78.40;100622.91;5112326;28;20047;-64
2023/03/17 09:41:18;;;;;;;10.65;4.53;;;;;;;10.15;82.25;100632.47;5112720;28;20061;-65
2023/03/17 09:43:48;;;;;;;16.58;5.97;;;;;;;10.19;80.57;100614.47;5103683;28;20054;-64
2023/03/17 09:46:35;;;;;;;16.70;5.00;;;;;;;10.22;81.36;100622.13;5096692;28;20040;-65
2023/03/17 09:49:48;;;;;;;10.52;4.30;;;;;;;10.19;78.74;100621.84;5115354;28;20055;-66
2023/03/17 09:52:27;;;;;;;11.05;3.72;;;;;;;10.19;77.90;100600.06;5099439;28;20048;-64
2023/03/17 09:54:56;;;;;;;9.57;4.18;;;;;;;10.18;78.00;100607.41;5095856;28;20050;-66
2023/03/17 09:57:36;;;;;;;8.98;4.00;;;;;;;10.16;78.08;100608.78;5096098;28;20068;-65
2023/03/17 10:00:17;;;;;;;7.25;3.95;;;;;;;10.15;78.87;100612.56;5116107;28;20048;-65
2023/03/17 10:02:46;;;;;;;14.77;4.32;;;;;;;10.15;78.99;100609.84;5117607;28;20148;-65
2023/03/17 10:05:20;;;;;;;8.55;4.20;;;;;;;10.18;78.54;100603.88;5100746;28;20115;-66
2023/03/17 10:08:12;;;;;;;9.15;4.18;;;;;;;10.20;79.05;100607.16;5096255;28;20044;-65
2023/03/17 10:11:13;;;;;;;7.95;4.35;;;;;;;10.24;79.36;100603.59;5096398;28;20131;-63
2023/03/17 10:14:03;;;;;;;9.60;4.20;;;;;;;10.28;79.18;100605.78;5094720;28;20093;-66
2023/03/17 10:16:41;;;;;;;9.73;4.00;;;;;;;10.30;79.22;100611.81;5095069;28;20063;-65
2023/03/17 10:19:31;;;;;;;13.57;4.82;;;;;;;10.30;79.67;100617.28;5095343;28;20078;-64
2023/03/17 10:22:03;;;;;;;18.75;4.85;;;;;;;10.37;79.63;100628.72;5096627;28;20056;-66
2023/03/17 10:24:32;;;;;;;12.77;4.85;;;;;;;10.45;82.55;100625.44;5105662;27;20048;-64
2023/03/17 10:27:03;;;;;;;13.30;5.05;;;;;;;10.48;82.77;100622.16;5088232;28;20044;-64
2023/03/17 10:29:31;;;;;;;7.97;4.20;;;;;;;10.46;80.59;100627.06;5085186;28;20071;-64
2023/03/17 10:32:00;;;;;;;13.07;4.85;;;;;;;10.48;82.65;100630.34;5120937;28;20058;-64
2023/03/17 10:34:32;;;;;;;19.05;5.97;;;;;;;10.57;87.05;100645.06;5127398;28;20054;-65
2023/03/17 10:37:20;;;;;;;15.23;5.60;;;;;;;10.68;87.71;100653.22;5105112;28;20079;-65
2023/03/17 10:39:53;;;;;;;11.30;4.65;;;;;;;10.60;84.61;100649.13;5098841;28;20132;-65
2023/03/17 10:42:28;;;;;;;13.68;4.75;;;;;;;10.53;82.46;100635.78;5115167;28;20097;-65
2023/03/17 10:45:06;;;;;;;10.63;4.72;;;;;;;10.52;81.74;100638.78;5115145;28;20074;-66
2023/03/17 10:47:39;;;;;;;11.27;4.70;;;;;;;10.51;81.45;100637.97;5115012;27;20491;-66
2023/03/17 10:50:33;;;;;;;11.13;4.30;;;;;;;10.53;81.29;100633.06;5098279;28;20079;-66
2023/03/17 10:53:07;;;;;;;12.38;4.25;;;;;;;10.56;81.44;100643.44;5116580;28;20036;-65
2023/03/17 10:55:39;;;;;;;9.95;4.70;;;;;;;10.61;81.51;100640.69;5114795;28;20047;-66
2023/03/17 10:58:16;;;;;;;10.02;4.53;;;;;;;10.66;81.18;100637.97;5103380;28;20470;-65
2023/03/17 11:01:18;;;;;;;13.50;5.25;;;;;;;10.74;80.65;100633.06;5096890;28;20051;-67
2023/03/17 11:03:56;;;;;;;7.07;3.70;;;;;;;10.85;82.69;100642.88;5100368;28;20097;-66
2023/03/17 11:06:35;;;;;;;10.55;5.20;;;;;;;11.00;81.14;100652.94;5066302;28;20063;-66
2023/03/17 11:09:15;;;;;;;9.50;5.05;;;;;;;11.07;78.85;100640.66;5061186;28;20052;-68
2023/03/17 11:11:45;;;;;;;10.35;4.78;;;;;;;11.09;78.44;100630.28;5115705;27;20044;-67
2023/03/17 11:14:18;;;;;;;11.35;5.28;;;;;;;11.11;78.33;100627.25;5125642;28;20048;-66
2023/03/17 11:16:55;;;;;;;13.60;6.10;;;;;;;11.13;78.91;100629.72;5109004;28;20044;-65
2023/03/17 11:19:26;;;;;;;12.60;5.88;;;;;;;11.16;78.08;100629.16;5093979;28;20066;-67
2023/03/17 11:22:15;;;;;;;15.27;6.00;;;;;;;11.24;78.35;100610.34;5095183;28;20051;-66
2023/03/17 11:25:00;;;;;;;13.68;5.57;;;;;;;11.31;78.68;100618.22;5113502;28;20626;-66
2023/03/17 11:27:32;;;;;;;14.75;5.55;;;;;;;11.46;77.44;100618.16;5082690;28;20096;-66
2023/03/17 11:30:29;;;;;;;13.88;6.22;;;;;;;11.57;76.51;100615.38;5096149;28;20036;-66
2023/03/17 11:33:21;;;;;;;12.88;5.53;;;;;;;11.56;75.28;100611.03;5111583;27;20052;-65
2023/03/17 11:35:53;;;;;;;11.93;4.72;;;;;;;11.59;81.32;100599.56;5095185;27;20048;-66
2023/03/17 11:38:29;;;;;;;14.23;5.03;;;;;;;11.71;79.48;100597.31;5095266;28;20449;-66
2023/03/17 11:41:11;;;;;;;14.43;5.53;;;;;;;11.96;81.38;100592.84;5105992;28;20376;-66
2023/03/17 11:44:08;;;;;;;16.02;5.57;;;;;;;11.87;75.15;100598.09;5114016;28;20043;-66
2023/03/17 11:46:52;;;;;;;11.68;5.30;;;;;;;11.79;74.36;100604.13;5094922;28;20516;-65